sensor_id;sensor_type;location;lat;lon;timestamp;P1;durP1;ratioP1;P2;durP2;ratioP2
59099;SDS011;44884;52.730;6.964;2022-09-04T00:00:20;1.60;;;1.50;;
59099;SDS011;44884;52.730;6.964;2022-09-04T00:05:19;2.20;;;1.90;;
59099;SDS011;44884;52.730;6.964;2022-09-04T00:15:24;2.70;;;1.35;;
59099;SDS011;44884;52.730;6.964;2022-09-04T00:18:03;1.90;;;1.80;;
59099;SDS011;44884;52.730;6.964;2022-09-04T00:20:37;1.98;;;1.80;;
59099;SDS011;44884;52.730;6.964;2022-09-04T00:23:09;1.70;;;1.60;;
59099;SDS011;44884;52.730;6.964;2022-09-04T00:25:42;1.63;;;1.52;;
59099;SDS011;44884;52.730;6.964;2022-09-04T00:28:18;1.90;;;1.70;;
59099;SDS011;44884;52.730;6.964;2022-09-04T00:30:52;1.95;;;1.83;;
59099;SDS011;44884;52.730;6.964;2022-09-04T00:33:26;2.47;;;1.90;;
59099;SDS011;44884;52.730;6.964;2022-09-04T00:35:56;1.92;;;1.77;;
59099;SDS011;44884;52.730;6.964;2022-09-04T00:38:43;2.58;;;1.90;;
59099;SDS011;44884;52.730;6.964;2022-09-04T00:41:27;1.98;;;1.80;;
59099;SDS011;44884;52.730;6.964;2022-09-04T01:02:41;1.90;;;1.80;;
59099;SDS011;44884;52.730;6.964;2022-09-04T01:07:48;1.58;;;1.48;;
59099;SDS011;44884;52.730;6.964;2022-09-04T01:13:06;2.95;;;2.00;;
59099;SDS011;44884;52.730;6.964;2022-09-04T01:15:38;2.00;;;1.90;;
59099;SDS011;44884;52.730;6.964;2022-09-04T01:18:07;1.80;;;1.70;;
59099;SDS011;44884;52.730;6.964;2022-09-04T01:26:07;2.60;;;2.13;;
59099;SDS011;44884;52.730;6.964;2022-09-04T01:28:52;1.85;;;1.60;;
59099;SDS011;44884;52.730;6.964;2022-09-04T01:39:19;1.75;;;1.65;;
59099;SDS011;44884;52.730;6.964;2022-09-04T01:44:16;2.55;;;1.90;;
59099;SDS011;44884;52.730;6.964;2022-09-04T01:47:15;3.10;;;1.83;;
59099;SDS011;44884;52.730;6.964;2022-09-04T01:49:38;1.80;;;1.70;;
59099;SDS011;44884;52.730;6.964;2022-09-04T01:52:13;1.60;;;1.50;;
59099;SDS011;44884;52.730;6.964;2022-09-04T01:54:52;3.63;;;1.77;;
59099;SDS011;44884;52.730;6.964;2022-09-04T02:05:20;2.13;;;1.75;;
59099;SDS011;44884;52.730;6.964;2022-09-04T02:10:34;2.22;;;1.75;;
59099;SDS011;44884;52.730;6.964;2022-09-04T02:13:21;2.10;;;1.77;;
59099;SDS011;44884;52.730;6.964;2022-09-04T02:15:57;4.05;;;2.08;;
59099;SDS011;44884;52.730;6.964;2022-09-04T02:21:17;2.05;;;1.85;;
59099;SDS011;44884;52.730;6.964;2022-09-04T02:26:13;4.57;;;2.25;;
59099;SDS011;44884;52.730;6.964;2022-09-04T02:28:54;3.13;;;1.70;;
59099;SDS011;44884;52.730;6.964;2022-09-04T02:33:52;3.60;;;2.22;;
59099;SDS011;44884;52.730;6.964;2022-09-04T02:36:40;2.10;;;1.90;;
59099;SDS011;44884;52.730;6.964;2022-09-04T02:49:23;2.10;;;2.00;;
59099;SDS011;44884;52.730;6.964;2022-09-04T02:57:31;2.42;;;1.63;;
59099;SDS011;44884;52.730;6.964;2022-09-04T03:00:08;1.90;;;1.80;;
59099;SDS011;44884;52.730;6.964;2022-09-04T03:05:20;2.60;;;2.40;;
59099;SDS011;44884;52.730;6.964;2022-09-04T03:07:53;2.08;;;1.88;;
59099;SDS011;44884;52.730;6.964;2022-09-04T03:10:27;2.08;;;1.98;;
59099;SDS011;44884;52.730;6.964;2022-09-04T03:15:38;1.83;;;1.73;;
59099;SDS011;44884;52.730;6.964;2022-09-04T03:20:32;2.00;;;1.80;;
59099;SDS011;44884;52.730;6.964;2022-09-04T03:25:44;2.08;;;1.98;;
59099;SDS011;44884;52.730;6.964;2022-09-04T03:28:19;1.98;;;1.88;;
59099;SDS011;44884;52.730;6.964;2022-09-04T03:30:48;1.83;;;1.70;;
59099;SDS011;44884;52.730;6.964;2022-09-04T03:33:18;2.17;;;2.00;;
59099;SDS011;44884;52.730;6.964;2022-09-04T03:35:51;1.80;;;1.70;;
59099;SDS011;44884;52.730;6.964;2022-09-04T03:45:51;2.70;;;2.50;;
59099;SDS011;44884;52.730;6.964;2022-09-04T03:51:13;2.35;;;2.15;;
59099;SDS011;44884;52.730;6.964;2022-09-04T03:59:04;2.45;;;2.15;;
59099;SDS011;44884;52.730;6.964;2022-09-04T04:06:45;3.22;;;2.25;;
59099;SDS011;44884;52.730;6.964;2022-09-04T04:19:45;2.10;;;1.90;;
59099;SDS011;44884;52.730;6.964;2022-09-04T04:22:18;2.45;;;2.20;;
59099;SDS011;44884;52.730;6.964;2022-09-04T04:27:33;2.55;;;2.35;;
59099;SDS011;44884;52.730;6.964;2022-09-04T04:30:16;2.45;;;1.92;;
59099;SDS011;44884;52.730;6.964;2022-09-04T04:37:54;2.63;;;2.42;;
59099;SDS011;44884;52.730;6.964;2022-09-04T04:45:55;2.10;;;1.90;;
59099;SDS011;44884;52.730;6.964;2022-09-04T04:48:22;2.58;;;2.38;;
59099;SDS011;44884;52.730;6.964;2022-09-04T04:56:01;3.75;;;2.08;;
59099;SDS011;44884;52.730;6.964;2022-09-04T04:58:40;2.55;;;2.33;;
59099;SDS011;44884;52.730;6.964;2022-09-04T05:01:12;2.65;;;2.45;;
59099;SDS011;44884;52.730;6.964;2022-09-04T05:06:37;2.60;;;2.40;;
59099;SDS011;44884;52.730;6.964;2022-09-04T05:11:51;3.80;;;2.73;;
59099;SDS011;44884;52.730;6.964;2022-09-04T05:17:12;3.95;;;2.20;;
59099;SDS011;44884;52.730;6.964;2022-09-04T05:19:41;2.80;;;2.40;;
59099;SDS011;44884;52.730;6.964;2022-09-04T05:27:31;2.78;;;2.45;;
59099;SDS011;44884;52.730;6.964;2022-09-04T05:30:08;2.22;;;2.03;;
59099;SDS011;44884;52.730;6.964;2022-09-04T05:32:38;3.22;;;2.40;;
59099;SDS011;44884;52.730;6.964;2022-09-04T05:35:14;2.65;;;2.45;;
59099;SDS011;44884;52.730;6.964;2022-09-04T05:37:45;12.10;;;2.60;;
59099;SDS011;44884;52.730;6.964;2022-09-04T05:40:22;3.15;;;2.20;;
59099;SDS011;44884;52.730;6.964;2022-09-04T05:43:02;3.25;;;2.33;;
59099;SDS011;44884;52.730;6.964;2022-09-04T06:04:16;2.90;;;2.60;;
59099;SDS011;44884;52.730;6.964;2022-09-04T06:06:47;3.17;;;2.75;;
59099;SDS011;44884;52.730;6.964;2022-09-04T06:12:18;3.60;;;2.25;;
59099;SDS011;44884;52.730;6.964;2022-09-04T06:22:53;2.42;;;2.22;;
59099;SDS011;44884;52.730;6.964;2022-09-04T06:27:52;2.60;;;2.40;;
59099;SDS011;44884;52.730;6.964;2022-09-04T06:30:21;2.20;;;2.00;;
59099;SDS011;44884;52.730;6.964;2022-09-04T06:43:23;3.43;;;2.30;;
59099;SDS011;44884;52.730;6.964;2022-09-04T06:48:26;3.80;;;2.65;;
59099;SDS011;44884;52.730;6.964;2022-09-04T07:04:30;6.05;;;3.25;;
59099;SDS011;44884;52.730;6.964;2022-09-04T07:09:55;4.75;;;3.40;;
59099;SDS011;44884;52.730;6.964;2022-09-04T07:12:27;5.53;;;3.60;;
59099;SDS011;44884;52.730;6.964;2022-09-04T07:17:37;5.72;;;3.22;;
59099;SDS011;44884;52.730;6.964;2022-09-04T07:30:45;7.63;;;3.75;;
59099;SDS011;44884;52.730;6.964;2022-09-04T07:33:22;4.18;;;3.45;;
59099;SDS011;44884;52.730;6.964;2022-09-04T07:41:27;3.88;;;2.92;;
59099;SDS011;44884;52.730;6.964;2022-09-04T07:44:13;5.60;;;3.10;;
59099;SDS011;44884;52.730;6.964;2022-09-04T07:46:49;6.63;;;3.28;;
59099;SDS011;44884;52.730;6.964;2022-09-04T07:51:45;5.60;;;3.33;;
59099;SDS011;44884;52.730;6.964;2022-09-04T08:02:02;5.10;;;2.95;;
59099;SDS011;44884;52.730;6.964;2022-09-04T08:07:02;4.22;;;3.20;;
59099;SDS011;44884;52.730;6.964;2022-09-04T08:12:13;3.58;;;2.72;;
59099;SDS011;44884;52.730;6.964;2022-09-04T08:25:12;3.60;;;3.10;;
59099;SDS011;44884;52.730;6.964;2022-09-04T08:30:13;2.63;;;2.40;;
59099;SDS011;44884;52.730;6.964;2022-09-04T08:35:13;4.70;;;3.03;;
59099;SDS011;44884;52.730;6.964;2022-09-04T08:37:59;3.45;;;3.15;;
59099;SDS011;44884;52.730;6.964;2022-09-04T08:46:04;5.53;;;3.25;;
59099;SDS011;44884;52.730;6.964;2022-09-04T08:53:55;4.57;;;2.67;;
59099;SDS011;44884;52.730;6.964;2022-09-04T08:56:34;4.35;;;2.72;;
59099;SDS011;44884;52.730;6.964;2022-09-04T09:02:05;4.93;;;3.00;;
59099;SDS011;44884;52.730;6.964;2022-09-04T09:07:30;4.05;;;2.55;;
59099;SDS011;44884;52.730;6.964;2022-09-04T09:10:43;3.35;;;2.85;;
59099;SDS011;44884;52.730;6.964;2022-09-04T09:15:31;3.63;;;2.75;;
59099;SDS011;44884;52.730;6.964;2022-09-04T09:18:15;4.53;;;2.75;;
59099;SDS011;44884;52.730;6.964;2022-09-04T09:23:15;3.83;;;3.22;;
59099;SDS011;44884;52.730;6.964;2022-09-04T09:42:24;4.53;;;2.85;;
59099;SDS011;44884;52.730;6.964;2022-09-04T10:00:56;5.03;;;3.40;;
59099;SDS011;44884;52.730;6.964;2022-09-04T10:03:39;8.70;;;3.00;;
59099;SDS011;44884;52.730;6.964;2022-09-04T10:09:01;5.05;;;2.72;;
59099;SDS011;44884;52.730;6.964;2022-09-04T10:22:05;5.37;;;3.33;;
59099;SDS011;44884;52.730;6.964;2022-09-04T10:30:48;2.88;;;2.40;;
59099;SDS011;44884;52.730;6.964;2022-09-04T10:32:41;3.22;;;2.45;;
59099;SDS011;44884;52.730;6.964;2022-09-04T10:45:36;3.60;;;2.85;;
59099;SDS011;44884;52.730;6.964;2022-09-04T11:04:40;5.60;;;3.05;;
59099;SDS011;44884;52.730;6.964;2022-09-04T11:23:07;2.17;;;1.98;;
59099;SDS011;44884;52.730;6.964;2022-09-04T11:38:49;2.53;;;2.15;;
59099;SDS011;44884;52.730;6.964;2022-09-04T11:41:33;3.10;;;2.72;;
59099;SDS011;44884;52.730;6.964;2022-09-04T11:46:37;2.40;;;2.20;;
59099;SDS011;44884;52.730;6.964;2022-09-04T12:04:57;2.85;;;2.65;;
59099;SDS011;44884;52.730;6.964;2022-09-04T12:22:39;2.83;;;2.45;;
59099;SDS011;44884;52.730;6.964;2022-09-04T12:30:36;2.60;;;2.40;;
59099;SDS011;44884;52.730;6.964;2022-09-04T12:41:19;2.60;;;2.33;;
59099;SDS011;44884;52.730;6.964;2022-09-04T12:43:56;2.53;;;2.33;;
59099;SDS011;44884;52.730;6.964;2022-09-04T12:46:37;2.25;;;2.05;;
59099;SDS011;44884;52.730;6.964;2022-09-04T12:51:43;1.90;;;1.80;;
59099;SDS011;44884;52.730;6.964;2022-09-04T12:54:19;2.15;;;2.05;;
59099;SDS011;44884;52.730;6.964;2022-09-04T13:02:02;3.72;;;2.47;;
59099;SDS011;44884;52.730;6.964;2022-09-04T13:10:13;2.28;;;2.10;;
59099;SDS011;44884;52.730;6.964;2022-09-04T13:17:43;2.67;;;2.35;;
59099;SDS011;44884;52.730;6.964;2022-09-04T13:25:41;2.58;;;2.30;;
59099;SDS011;44884;52.730;6.964;2022-09-04T13:31:28;2.47;;;2.22;;
59099;SDS011;44884;52.730;6.964;2022-09-04T13:36:14;3.13;;;2.10;;
59099;SDS011;44884;52.730;6.964;2022-09-04T13:46:43;3.00;;;2.35;;
59099;SDS011;44884;52.730;6.964;2022-09-04T13:49:13;2.22;;;1.80;;
59099;SDS011;44884;52.730;6.964;2022-09-04T13:51:42;2.45;;;2.25;;
59099;SDS011;44884;52.730;6.964;2022-09-04T13:54:25;3.67;;;2.53;;
59099;SDS011;44884;52.730;6.964;2022-09-04T13:56:58;2.50;;;2.30;;
59099;SDS011;44884;52.730;6.964;2022-09-04T13:59:27;2.13;;;2.00;;
59099;SDS011;44884;52.730;6.964;2022-09-04T14:01:54;3.78;;;1.73;;
59099;SDS011;44884;52.730;6.964;2022-09-04T14:04:30;1.83;;;1.73;;
59099;SDS011;44884;52.730;6.964;2022-09-04T14:06:59;4.35;;;2.33;;
59099;SDS011;44884;52.730;6.964;2022-09-04T14:09:30;1.80;;;1.70;;
59099;SDS011;44884;52.730;6.964;2022-09-04T14:12:05;2.13;;;1.92;;
59099;SDS011;44884;52.730;6.964;2022-09-04T14:17:24;2.10;;;2.00;;
59099;SDS011;44884;52.730;6.964;2022-09-04T14:20:07;2.05;;;1.90;;
59099;SDS011;44884;52.730;6.964;2022-09-04T14:22:50;2.28;;;2.08;;
59099;SDS011;44884;52.730;6.964;2022-09-04T14:35:51;1.75;;;1.65;;
59099;SDS011;44884;52.730;6.964;2022-09-04T14:38:42;2.42;;;2.22;;
59099;SDS011;44884;52.730;6.964;2022-09-04T14:43:55;2.00;;;1.85;;
59099;SDS011;44884;52.730;6.964;2022-09-04T14:49:06;2.38;;;2.17;;
59099;SDS011;44884;52.730;6.964;2022-09-04T14:51:34;1.80;;;1.70;;
59099;SDS011;44884;52.730;6.964;2022-09-04T14:54:02;1.90;;;1.80;;
59099;SDS011;44884;52.730;6.964;2022-09-04T15:02:22;2.75;;;2.00;;
59099;SDS011;44884;52.730;6.964;2022-09-04T15:07:23;2.35;;;2.08;;
59099;SDS011;44884;52.730;6.964;2022-09-04T15:09:53;2.08;;;1.98;;
59099;SDS011;44884;52.730;6.964;2022-09-04T15:12:33;2.13;;;2.03;;
59099;SDS011;44884;52.730;6.964;2022-09-04T15:17:27;2.95;;;2.45;;
59099;SDS011;44884;52.730;6.964;2022-09-04T15:19:58;2.42;;;2.20;;
59099;SDS011;44884;52.730;6.964;2022-09-04T15:25:00;2.22;;;2.08;;
59099;SDS011;44884;52.730;6.964;2022-09-04T15:32:21;2.88;;;1.63;;
59099;SDS011;44884;52.730;6.964;2022-09-04T15:34:48;1.85;;;1.75;;
59099;SDS011;44884;52.730;6.964;2022-09-04T15:37:24;2.05;;;1.95;;
59099;SDS011;44884;52.730;6.964;2022-09-04T15:39:57;3.03;;;1.80;;
59099;SDS011;44884;52.730;6.964;2022-09-04T15:42:37;2.40;;;2.20;;
59099;SDS011;44884;52.730;6.964;2022-09-04T15:45:07;2.50;;;2.30;;
59099;SDS011;44884;52.730;6.964;2022-09-04T15:50:03;2.88;;;2.47;;
59099;SDS011;44884;52.730;6.964;2022-09-04T15:52:36;2.03;;;1.92;;
59099;SDS011;44884;52.730;6.964;2022-09-04T15:58:32;2.40;;;2.20;;
59099;SDS011;44884;52.730;6.964;2022-09-04T16:00:51;3.17;;;2.60;;
59099;SDS011;44884;52.730;6.964;2022-09-04T16:03:24;2.35;;;2.15;;
59099;SDS011;44884;52.730;6.964;2022-09-04T16:05:55;2.30;;;2.03;;
59099;SDS011;44884;52.730;6.964;2022-09-04T16:10:53;3.70;;;2.13;;
59099;SDS011;44884;52.730;6.964;2022-09-04T16:15:54;2.72;;;2.50;;
59099;SDS011;44884;52.730;6.964;2022-09-04T16:18:37;2.17;;;1.90;;
59099;SDS011;44884;52.730;6.964;2022-09-04T16:21:09;3.17;;;2.63;;
59099;SDS011;44884;52.730;6.964;2022-09-04T16:26:09;4.53;;;3.30;;
59099;SDS011;44884;52.730;6.964;2022-09-04T16:28:37;2.50;;;2.30;;
59099;SDS011;44884;52.730;6.964;2022-09-04T16:31:11;4.57;;;3.20;;
59099;SDS011;44884;52.730;6.964;2022-09-04T16:33:45;3.35;;;3.05;;
59099;SDS011;44884;52.730;6.964;2022-09-04T16:38:44;3.28;;;2.97;;
59099;SDS011;44884;52.730;6.964;2022-09-04T16:46:28;3.97;;;3.05;;
59099;SDS011;44884;52.730;6.964;2022-09-04T16:49:06;5.25;;;2.60;;
59099;SDS011;44884;52.730;6.964;2022-09-04T16:51:35;4.38;;;3.17;;
59099;SDS011;44884;52.730;6.964;2022-09-04T16:56:36;2.90;;;2.70;;
59099;SDS011;44884;52.730;6.964;2022-09-04T17:01:56;2.90;;;2.70;;
59099;SDS011;44884;52.730;6.964;2022-09-04T17:07:24;4.70;;;3.08;;
59099;SDS011;44884;52.730;6.964;2022-09-04T17:10:02;6.60;;;3.45;;
59099;SDS011;44884;52.730;6.964;2022-09-04T17:17:50;3.33;;;3.03;;
59099;SDS011;44884;52.730;6.964;2022-09-04T17:26:20;2.88;;;2.67;;
59099;SDS011;44884;52.730;6.964;2022-09-04T17:31:23;2.95;;;2.72;;
59099;SDS011;44884;52.730;6.964;2022-09-04T17:33:48;3.78;;;2.65;;
59099;SDS011;44884;52.730;6.964;2022-09-04T17:36:21;3.13;;;2.85;;
59099;SDS011;44884;52.730;6.964;2022-09-04T17:38:56;3.00;;;2.80;;
59099;SDS011;44884;52.730;6.964;2022-09-04T17:41:27;2.78;;;2.58;;
59099;SDS011;44884;52.730;6.964;2022-09-04T17:51:39;2.83;;;2.63;;
59099;SDS011;44884;52.730;6.964;2022-09-04T17:56:42;2.70;;;2.50;;
59099;SDS011;44884;52.730;6.964;2022-09-04T18:01:42;3.05;;;2.75;;
59099;SDS011;44884;52.730;6.964;2022-09-04T18:07:04;3.40;;;3.10;;
59099;SDS011;44884;52.730;6.964;2022-09-04T18:09:37;3.00;;;2.80;;
59099;SDS011;44884;52.730;6.964;2022-09-04T18:12:07;3.80;;;3.20;;
59099;SDS011;44884;52.730;6.964;2022-09-04T18:19:48;2.80;;;2.60;;
59099;SDS011;44884;52.730;6.964;2022-09-04T18:22:27;4.32;;;3.45;;
59099;SDS011;44884;52.730;6.964;2022-09-04T18:30:14;3.20;;;2.90;;
59099;SDS011;44884;52.730;6.964;2022-09-04T18:37:54;2.60;;;2.20;;
59099;SDS011;44884;52.730;6.964;2022-09-04T18:40:25;2.83;;;2.58;;
59099;SDS011;44884;52.730;6.964;2022-09-04T18:44:03;2.65;;;2.45;;
59099;SDS011;44884;52.730;6.964;2022-09-04T18:45:55;2.70;;;2.50;;
59099;SDS011;44884;52.730;6.964;2022-09-04T18:48:22;2.72;;;2.53;;
59099;SDS011;44884;52.730;6.964;2022-09-04T18:50:58;2.70;;;2.50;;
59099;SDS011;44884;52.730;6.964;2022-09-04T19:00:59;2.58;;;2.42;;
59099;SDS011;44884;52.730;6.964;2022-09-04T19:05:54;2.55;;;2.35;;
59099;SDS011;44884;52.730;6.964;2022-09-04T19:08:23;2.78;;;2.58;;
59099;SDS011;44884;52.730;6.964;2022-09-04T19:10:53;2.58;;;2.38;;
59099;SDS011;44884;52.730;6.964;2022-09-04T19:13:22;3.22;;;2.60;;
59099;SDS011;44884;52.730;6.964;2022-09-04T19:15:51;2.50;;;2.35;;
59099;SDS011;44884;52.730;6.964;2022-09-04T19:18:54;2.63;;;2.42;;
59099;SDS011;44884;52.730;6.964;2022-09-04T19:26:29;3.33;;;3.13;;
59099;SDS011;44884;52.730;6.964;2022-09-04T19:31:42;2.85;;;2.65;;
59099;SDS011;44884;52.730;6.964;2022-09-04T19:36:40;3.78;;;3.05;;
59099;SDS011;44884;52.730;6.964;2022-09-04T19:41:35;3.20;;;2.90;;
59099;SDS011;44884;52.730;6.964;2022-09-04T19:44:05;3.40;;;3.13;;
59099;SDS011;44884;52.730;6.964;2022-09-04T19:49:19;3.03;;;2.80;;
59099;SDS011;44884;52.730;6.964;2022-09-04T19:51:56;3.10;;;2.83;;
59099;SDS011;44884;52.730;6.964;2022-09-04T19:55:12;2.97;;;2.78;;
59099;SDS011;44884;52.730;6.964;2022-09-04T19:57:25;3.90;;;3.00;;
59099;SDS011;44884;52.730;6.964;2022-09-04T20:02:31;3.75;;;3.00;;
59099;SDS011;44884;52.730;6.964;2022-09-04T20:05:00;6.10;;;3.22;;
59099;SDS011;44884;52.730;6.964;2022-09-04T20:07:40;3.45;;;2.88;;
59099;SDS011;44884;52.730;6.964;2022-09-04T20:10:14;3.97;;;3.42;;
59099;SDS011;44884;52.730;6.964;2022-09-04T20:12:43;4.38;;;2.80;;
59099;SDS011;44884;52.730;6.964;2022-09-04T20:15:18;3.90;;;2.97;;
59099;SDS011;44884;52.730;6.964;2022-09-04T20:21:16;3.97;;;3.08;;
59099;SDS011;44884;52.730;6.964;2022-09-04T20:31:33;3.13;;;2.92;;
59099;SDS011;44884;52.730;6.964;2022-09-04T20:36:31;4.05;;;3.58;;
59099;SDS011;44884;52.730;6.964;2022-09-04T20:39:20;3.72;;;3.35;;
59099;SDS011;44884;52.730;6.964;2022-09-04T20:46:48;3.80;;;3.47;;
59099;SDS011;44884;52.730;6.964;2022-09-04T20:49:34;3.40;;;3.10;;
59099;SDS011;44884;52.730;6.964;2022-09-04T20:52:07;3.70;;;3.40;;
59099;SDS011;44884;52.730;6.964;2022-09-04T20:57:22;4.95;;;3.63;;
59099;SDS011;44884;52.730;6.964;2022-09-04T21:00:05;5.88;;;4.30;;
59099;SDS011;44884;52.730;6.964;2022-09-04T21:02:36;5.38;;;4.00;;
59099;SDS011;44884;52.730;6.964;2022-09-04T21:07:55;5.05;;;3.75;;
59099;SDS011;44884;52.730;6.964;2022-09-04T21:10:27;5.40;;;3.30;;
59099;SDS011;44884;52.730;6.964;2022-09-04T21:26:36;8.80;;;4.03;;
59099;SDS011;44884;52.730;6.964;2022-09-04T21:33:39;4.72;;;3.70;;
59099;SDS011;44884;52.730;6.964;2022-09-04T21:46:20;3.95;;;3.58;;
59099;SDS011;44884;52.730;6.964;2022-09-04T21:54:07;4.60;;;3.35;;
59099;SDS011;44884;52.730;6.964;2022-09-04T21:59:25;5.22;;;3.78;;
59099;SDS011;44884;52.730;6.964;2022-09-04T22:04:37;4.25;;;3.95;;
59099;SDS011;44884;52.730;6.964;2022-09-04T22:12:36;4.70;;;3.25;;
59099;SDS011;44884;52.730;6.964;2022-09-04T22:15:06;3.83;;;3.53;;
59099;SDS011;44884;52.730;6.964;2022-09-04T22:20:27;3.70;;;3.35;;
59099;SDS011;44884;52.730;6.964;2022-09-04T22:33:47;4.10;;;3.70;;
59099;SDS011;44884;52.730;6.964;2022-09-04T22:36:25;3.50;;;3.20;;
59099;SDS011;44884;52.730;6.964;2022-09-04T22:47:00;3.80;;;3.50;;
59099;SDS011;44884;52.730;6.964;2022-09-04T22:50:09;3.95;;;3.55;;
59099;SDS011;44884;52.730;6.964;2022-09-04T22:52:55;3.70;;;3.40;;
59099;SDS011;44884;52.730;6.964;2022-09-04T23:00:52;4.57;;;4.07;;
59099;SDS011;44884;52.730;6.964;2022-09-04T23:03:27;8.43;;;3.92;;
59099;SDS011;44884;52.730;6.964;2022-09-04T23:06:10;4.15;;;3.70;;
59099;SDS011;44884;52.730;6.964;2022-09-04T23:08:47;3.78;;;3.40;;
59099;SDS011;44884;52.730;6.964;2022-09-04T23:18:56;3.90;;;3.60;;
59099;SDS011;44884;52.730;6.964;2022-09-04T23:27:20;3.80;;;3.50;;
59099;SDS011;44884;52.730;6.964;2022-09-04T23:35:14;4.20;;;3.42;;
59099;SDS011;44884;52.730;6.964;2022-09-04T23:40:18;5.00;;;3.17;;
59099;SDS011;44884;52.730;6.964;2022-09-04T23:43:12;3.85;;;3.45;;
59099;SDS011;44884;52.730;6.964;2022-09-04T23:46:22;4.43;;;3.17;;
59099;SDS011;44884;52.730;6.964;2022-09-04T23:48:56;4.10;;;3.72;;
59099;SDS011;44884;52.730;6.964;2022-09-04T23:56:38;5.07;;;3.97;;
59099;SDS011;44884;52.730;6.964;2022-09-04T23:59:09;4.45;;;3.83;;
